Time;durP1;ratioP1;P1;durP2;ratioP2;P2;SDS_P1;SDS_P2;PMS_P1;PMS_P2;Temp;Humidity;BMP_temperature;BMP_pressure;BME280_temperature;BME280_humidity;BME280_pressure;Samples;Min_cycle;Max_cycle;Signal;HPM_P1;HPM_P2
2020/12/09 00:00:10;;;;;;;10.55;4.55;;;3.00;99.90;;;;;;5069106;28;20043;-64
2020/12/09 00:02:38;;;;;;;13.00;5.10;;;3.00;99.90;;;;;;5065686;28;20044;-64
2020/12/09 00:05:09;;;;;;;9.98;4.55;;;3.10;99.90;;;;;;5060613;28;20130;-64
2020/12/09 00:07:36;;;;;;;10.50;4.97;;;3.00;99.90;;;;;;5069874;28;20041;-65
2020/12/09 00:10:05;;;;;;;13.20;5.10;;;2.90;99.90;;;;;;5063259;28;20384;-65
2020/12/09 00:12:34;;;;;;;13.85;5.03;;;3.00;99.90;;;;;;5067208;28;20055;-65
2020/12/09 00:15:01;;;;;;;11.57;4.97;;;3.00;99.90;;;;;;5068074;28;20110;-64
2020/12/09 00:17:30;;;;;;;14.02;5.53;;;3.00;99.90;;;;;;5069056;28;20105;-65
2020/12/09 00:19:57;;;;;;;13.88;5.40;;;3.00;99.90;;;;;;5066128;28;20403;-65
2020/12/09 00:22:24;;;;;;;11.95;4.57;;;3.00;99.90;;;;;;5056960;28;20506;-65
2020/12/09 00:24:51;;;;;;;14.02;5.38;;;3.00;99.90;;;;;;5059565;28;20617;-65
2020/12/09 00:27:18;;;;;;;13.55;5.50;;;2.90;99.90;;;;;;5065993;28;20041;-65
2020/12/09 00:29:44;;;;;;;16.25;6.30;;;3.00;99.90;;;;;;5064850;28;20048;-65
2020/12/09 00:32:11;;;;;;;13.73;5.45;;;2.90;99.90;;;;;;5071602;28;20068;-65
2020/12/09 00:34:38;;;;;;;17.48;6.32;;;2.90;99.90;;;;;;5072093;28;20059;-65
2020/12/09 00:37:05;;;;;;;14.98;5.22;;;2.90;99.90;;;;;;5066518;28;20041;-65
2020/12/09 00:39:32;;;;;;;15.32;6.10;;;2.90;99.90;;;;;;5059151;28;20052;-65
2020/12/09 00:41:58;;;;;;;14.90;6.10;;;2.90;99.90;;;;;;5069978;28;20545;-65
2020/12/09 00:44:25;;;;;;;13.48;5.78;;;2.90;99.90;;;;;;5070752;28;20135;-64
2020/12/09 00:46:51;;;;;;;17.35;6.60;;;2.90;99.90;;;;;;5073429;28;20045;-64
2020/12/09 00:49:19;;;;;;;14.48;5.53;;;2.90;99.90;;;;;;5063779;28;20163;-65
2020/12/09 00:51:45;;;;;;;16.60;6.03;;;2.90;99.90;;;;;;5069933;28;20040;-64
2020/12/09 00:54:13;;;;;;;15.55;5.50;;;2.80;99.90;;;;;;5068172;28;20048;-64
2020/12/09 00:56:43;;;;;;;16.20;6.03;;;2.90;99.90;;;;;;5073187;28;20025;-64
2020/12/09 00:59:13;;;;;;;15.23;6.15;;;2.80;99.90;;;;;;5050984;28;20040;-63
2020/12/09 01:01:40;;;;;;;14.63;6.00;;;2.90;99.90;;;;;;5086580;28;20656;-63
2020/12/09 01:04:13;;;;;;;;;;;2.90;99.90;;;;;;5068175;28;20095;-63
2020/12/09 01:06:39;;;;;;;16.15;5.47;;;2.80;99.90;;;;;;5068848;28;19927;-64
2020/12/09 01:09:07;;;;;;;14.27;6.50;;;2.80;99.90;;;;;;5070569;28;20040;-63
2020/12/09 01:11:33;;;;;;;15.00;6.05;;;2.80;99.90;;;;;;5071368;28;20081;-64
2020/12/09 01:14:00;;;;;;;13.70;6.28;;;2.80;99.90;;;;;;5062331;28;20037;-64
2020/12/09 01:16:27;;;;;;;14.90;6.47;;;2.80;99.90;;;;;;5063504;28;20045;-64
2020/12/09 01:18:54;;;;;;;11.52;5.38;;;2.80;99.90;;;;;;5069275;28;20044;-64
2020/12/09 01:21:30;;;;;;;16.15;6.25;;;2.80;99.90;;;;;;5068870;28;20052;-64
2020/12/09 01:23:57;;;;;;;14.82;6.55;;;2.80;99.90;;;;;;5046007;28;20403;-64
2020/12/09 01:26:24;;;;;;;15.18;6.28;;;2.70;99.90;;;;;;5053397;28;20048;-64
2020/12/09 01:28:51;;;;;;;16.67;6.53;;;2.70;99.90;;;;;;5061016;28;20056;-64
2020/12/09 01:31:21;;;;;;;11.38;5.47;;;2.70;99.90;;;;;;5057255;28;20035;-64
2020/12/09 01:33:48;;;;;;;16.42;5.47;;;2.80;99.90;;;;;;5065072;28;20033;-64
2020/12/09 01:36:24;;;;;;;13.63;5.03;;;2.70;99.90;;;;;;5052513;28;20555;-64
2020/12/09 01:38:52;;;;;;;14.85;6.40;;;2.70;99.90;;;;;;5062767;28;20484;-64
2020/12/09 01:41:20;;;;;;;15.63;6.25;;;2.70;99.90;;;;;;5067344;28;20119;-64
2020/12/09 01:43:48;;;;;;;16.83;5.72;;;2.70;99.90;;;;;;5058832;28;20514;-64
2020/12/09 01:46:16;;;;;;;15.85;5.53;;;2.70;99.90;;;;;;5067286;28;20044;-64
2020/12/09 01:48:44;;;;;;;19.35;5.80;;;2.70;99.90;;;;;;5070992;28;20056;-64
2020/12/09 01:51:16;;;;;;;15.35;5.78;;;2.70;99.90;;;;;;5062371;28;20540;-64
2020/12/09 01:53:44;;;;;;;15.43;6.25;;;2.70;99.90;;;;;;5069859;28;20047;-64
2020/12/09 01:56:10;;;;;;;15.73;6.50;;;2.70;99.90;;;;;;5051779;28;20536;-64
2020/12/09 01:58:37;;;;;;;13.40;5.53;;;2.60;99.90;;;;;;5070255;28;20868;-64
2020/12/09 02:01:04;;;;;;;16.75;6.13;;;2.70;99.90;;;;;;5066446;28;20131;-64
2020/12/09 02:03:30;;;;;;;13.93;5.85;;;2.70;99.90;;;;;;5066701;28;20045;-64
2020/12/09 02:05:57;;;;;;;15.02;6.00;;;2.70;99.90;;;;;;5063300;28;20542;-64
2020/12/09 02:08:23;;;;;;;14.07;6.43;;;2.70;99.90;;;;;;5051463;28;20048;-64
2020/12/09 02:11:04;;;;;;;13.30;6.10;;;2.60;99.90;;;;;;5061332;28;20086;-64
2020/12/09 02:13:31;;;;;;;15.75;6.10;;;2.60;99.90;;;;;;5084399;28;20056;-64
2020/12/09 02:15:58;;;;;;;16.48;6.68;;;2.60;99.90;;;;;;5069221;28;20442;-64
2020/12/09 02:18:25;;;;;;;19.17;6.72;;;2.60;99.90;;;;;;5058776;28;20041;-64
2020/12/09 02:20:52;;;;;;;14.40;6.10;;;2.60;99.90;;;;;;5056394;28;20036;-64
2020/12/09 02:23:19;;;;;;;15.15;6.82;;;2.60;99.90;;;;;;5052791;28;20051;-64
2020/12/09 02:25:46;;;;;;;14.60;5.80;;;2.60;99.90;;;;;;5072141;28;20036;-64
2020/12/09 02:28:13;;;;;;;16.77;6.35;;;2.60;99.90;;;;;;5068158;28;20124;-64
2020/12/09 02:30:40;;;;;;;16.13;6.10;;;2.60;99.90;;;;;;5064609;28;20052;-64
2020/12/09 02:33:06;;;;;;;17.42;6.38;;;2.60;99.90;;;;;;5067169;28;20062;-64
2020/12/09 02:35:34;;;;;;;16.90;6.05;;;2.60;99.90;;;;;;5059799;28;20113;-64
2020/12/09 02:38:02;;;;;;;17.90;6.57;;;2.50;99.90;;;;;;5063265;28;20051;-64
2020/12/09 02:40:29;;;;;;;15.48;6.30;;;2.50;99.90;;;;;;5060944;28;20429;-64
2020/12/09 02:42:55;;;;;;;19.10;6.53;;;2.60;99.90;;;;;;5049723;28;20040;-64
2020/12/09 02:45:23;;;;;;;16.23;6.53;;;2.60;99.90;;;;;;5066253;28;20040;-64
2020/12/09 02:47:50;;;;;;;20.17;7.97;;;2.50;99.90;;;;;;5068420;28;20086;-64
2020/12/09 02:50:16;;;;;;;19.15;7.55;;;2.50;99.90;;;;;;5058958;28;20051;-64
2020/12/09 02:52:43;;;;;;;17.10;6.60;;;2.50;99.90;;;;;;5064216;28;20045;-64
2020/12/09 02:55:09;;;;;;;26.60;8.63;;;2.50;99.90;;;;;;5070864;28;20801;-64
2020/12/09 02:57:36;;;;;;;19.45;7.18;;;2.50;99.90;;;;;;5057531;28;20049;-64
2020/12/09 03:00:05;;;;;;;19.33;7.25;;;2.50;99.90;;;;;;5065215;28;20066;-64
2020/12/09 03:02:32;;;;;;;18.58;7.78;;;2.50;99.90;;;;;;5062829;28;20051;-64
2020/12/09 03:05:00;;;;;;;19.13;7.78;;;2.50;99.90;;;;;;5064181;28;20128;-64
2020/12/09 03:07:26;;;;;;;21.08;8.25;;;2.50;99.90;;;;;;5064646;28;20041;-64
2020/12/09 03:09:53;;;;;;;24.10;9.10;;;2.50;99.90;;;;;;5067005;28;20456;-64
2020/12/09 03:12:19;;;;;;;18.13;8.63;;;2.50;99.90;;;;;;5068000;28;20043;-64
2020/12/09 03:14:46;;;;;;;20.55;7.65;;;2.50;99.90;;;;;;5063594;28;20476;-64
2020/12/09 03:17:12;;;;;;;17.02;6.57;;;2.50;99.90;;;;;;5046208;28;20052;-64
2020/12/09 03:19:39;;;;;;;20.33;7.63;;;2.50;99.90;;;;;;5063249;28;20044;-64
2020/12/09 03:22:05;;;;;;;20.33;7.97;;;2.50;99.90;;;;;;5066955;28;20036;-64
2020/12/09 03:24:32;;;;;;;22.48;8.10;;;2.50;99.90;;;;;;5067503;28;20538;-64
2020/12/09 03:26:59;;;;;;;15.35;6.45;;;2.50;99.90;;;;;;5068842;28;20121;-64
2020/12/09 03:29:26;;;;;;;16.08;7.00;;;2.50;99.90;;;;;;5061091;28;20059;-64
2020/12/09 03:31:53;;;;;;;18.65;7.18;;;2.50;99.90;;;;;;5066597;28;20040;-64
2020/12/09 03:34:19;;;;;;;19.42;8.02;;;2.60;99.90;;;;;;5063636;28;20044;-64
2020/12/09 03:36:46;;;;;;;17.50;7.15;;;2.60;99.90;;;;;;5068442;28;20446;-64
2020/12/09 03:39:13;;;;;;;22.75;7.55;;;2.50;99.90;;;;;;5050862;28;20040;-64
2020/12/09 03:41:39;;;;;;;19.45;7.75;;;2.60;99.90;;;;;;5061121;28;20053;-64
2020/12/09 03:44:06;;;;;;;25.90;8.02;;;2.60;99.90;;;;;;5059499;28;20121;-64
2020/12/09 03:46:32;;;;;;;19.40;7.03;;;2.60;99.90;;;;;;5060094;28;20457;-64
2020/12/09 03:48:59;;;;;;;21.48;7.65;;;2.60;99.90;;;;;;5066650;28;20516;-64
2020/12/09 03:51:25;;;;;;;22.48;8.98;;;2.60;99.90;;;;;;5067199;28;20045;-64
2020/12/09 03:53:52;;;;;;;23.15;9.00;;;2.60;99.90;;;;;;5057323;28;20540;-64
2020/12/09 03:56:18;;;;;;;18.42;7.00;;;2.60;99.90;;;;;;5058860;28;20124;-64
2020/12/09 03:58:45;;;;;;;19.15;7.05;;;2.60;99.90;;;;;;5074061;28;20052;-64
2020/12/09 04:01:12;;;;;;;16.33;7.28;;;2.60;99.90;;;;;;5067571;28;20060;-64
2020/12/09 04:03:39;;;;;;;17.02;7.65;;;2.60;99.90;;;;;;5063030;28;20079;-64
2020/12/09 04:06:05;;;;;;;19.90;7.22;;;2.60;99.90;;;;;;5069758;28;20530;-63
2020/12/09 04:08:32;;;;;;;18.38;7.43;;;2.60;99.90;;;;;;5065348;28;20094;-63
2020/12/09 04:10:58;;;;;;;25.48;7.70;;;2.60;99.90;;;;;;5072668;28;20545;-63
2020/12/09 04:13:25;;;;;;;21.08;7.00;;;2.60;99.90;;;;;;5069717;28;20049;-63
2020/12/09 04:15:51;;;;;;;15.63;6.68;;;2.60;99.90;;;;;;5072161;28;20055;-63
2020/12/09 04:18:18;;;;;;;20.02;7.03;;;2.60;99.90;;;;;;5065792;28;20441;-63
2020/12/09 04:20:45;;;;;;;20.40;7.32;;;2.60;99.90;;;;;;5058646;28;20052;-63
2020/12/09 04:23:11;;;;;;;20.02;7.57;;;2.60;99.90;;;;;;5064296;28;20143;-63
2020/12/09 04:25:38;;;;;;;17.48;6.22;;;2.60;99.90;;;;;;5066810;28;20064;-63
2020/12/09 04:28:04;;;;;;;14.55;6.40;;;2.70;99.90;;;;;;5066327;28;20578;-63
2020/12/09 04:30:31;;;;;;;23.20;7.57;;;2.70;99.90;;;;;;5070195;28;20567;-63
2020/12/09 04:32:57;;;;;;;16.73;6.35;;;2.70;99.90;;;;;;5071780;28;20041;-63
2020/12/09 04:35:25;;;;;;;19.88;7.00;;;2.70;99.90;;;;;;5065746;28;20448;-64
2020/12/09 04:37:55;;;;;;;16.92;6.40;;;2.70;99.90;;;;;;5067280;28;20445;-63
2020/12/09 04:40:26;;;;;;;14.60;5.43;;;2.70;99.90;;;;;;5063715;28;20048;-63
2020/12/09 04:43:01;;;;;;;14.82;5.82;;;2.70;99.90;;;;;;5073421;28;20040;-63
2020/12/09 04:45:30;;;;;;;16.35;5.75;;;2.70;99.90;;;;;;5071421;28;20049;-63
2020/12/09 04:48:08;;;;;;;14.77;6.22;;;2.70;99.90;;;;;;5070801;28;20082;-63
2020/12/09 04:51:12;;;;;;;17.15;5.88;;;2.70;99.90;;;;;;5070765;28;20059;-63
2020/12/09 04:53:42;;;;;;;15.20;5.97;;;2.70;99.90;;;;;;5065940;28;20049;-64
2020/12/09 04:56:10;;;;;;;17.20;6.18;;;2.70;99.90;;;;;;5059342;28;20048;-64
2020/12/09 04:58:40;;;;;;;18.50;6.40;;;2.70;99.90;;;;;;5067945;28;20060;-64
2020/12/09 05:01:15;;;;;;;17.73;6.82;;;2.70;99.90;;;;;;5062135;28;20494;-64
2020/12/09 05:03:45;;;;;;;19.38;6.30;;;2.70;99.90;;;;;;5071026;28;20044;-64
2020/12/09 05:06:14;;;;;;;16.45;5.80;;;2.70;99.90;;;;;;5069196;28;20095;-64
2020/12/09 05:08:57;;;;;;;18.10;7.03;;;2.70;99.90;;;;;;5064634;28;20560;-64
2020/12/09 05:11:26;;;;;;;17.13;6.53;;;2.70;99.90;;;;;;5069657;28;20055;-63
2020/12/09 05:13:58;;;;;;;14.25;5.60;;;2.70;99.90;;;;;;5069571;28;20044;-63
2020/12/09 05:16:25;;;;;;;17.10;6.60;;;2.70;99.90;;;;;;5084400;28;20067;-63
2020/12/09 05:18:58;;;;;;;15.52;6.95;;;2.70;99.90;;;;;;5056854;28;20041;-63
2020/12/09 05:21:25;;;;;;;19.90;6.97;;;2.70;99.90;;;;;;5067366;28;20048;-64
2020/12/09 05:24:00;;;;;;;16.02;6.78;;;2.70;99.90;;;;;;5069416;28;20158;-63
2020/12/09 05:26:31;;;;;;;17.55;6.43;;;2.70;99.90;;;;;;5062791;28;20040;-65
2020/12/09 05:29:07;;;;;;;13.82;6.03;;;2.60;99.90;;;;;;5063862;28;20041;-64
2020/12/09 05:31:35;;;;;;;16.58;6.93;;;2.70;99.90;;;;;;5075598;28;20036;-64
2020/12/09 05:34:03;;;;;;;18.65;6.75;;;2.70;99.90;;;;;;5065739;28;20041;-64
2020/12/09 05:36:46;;;;;;;20.38;6.78;;;2.70;99.90;;;;;;5065363;28;20064;-64
2020/12/09 05:39:12;;;;;;;13.98;6.20;;;2.70;99.90;;;;;;5062872;28;20494;-64
2020/12/09 05:41:39;;;;;;;15.50;6.28;;;2.70;99.90;;;;;;5042246;28;20057;-64
2020/12/09 05:44:06;;;;;;;14.82;5.43;;;2.70;99.90;;;;;;5068217;28;20040;-64
2020/12/09 05:46:32;;;;;;;14.73;5.15;;;2.80;99.90;;;;;;5064983;28;20045;-63
2020/12/09 05:48:59;;;;;;;18.00;6.15;;;2.70;99.90;;;;;;5064178;28;20538;-63
2020/12/09 05:51:26;;;;;;;12.13;5.18;;;2.70;99.90;;;;;;5062321;28;20090;-63
2020/12/09 05:53:52;;;;;;;14.82;6.25;;;2.70;99.90;;;;;;5065057;28;20037;-62
2020/12/09 05:56:22;;;;;;;19.00;6.53;;;2.70;99.90;;;;;;5063912;28;20037;-62
2020/12/09 05:58:50;;;;;;;16.75;6.85;;;2.70;99.90;;;;;;5069128;28;20029;-62
2020/12/09 06:01:24;;;;;;;19.30;5.88;;;2.70;99.90;;;;;;5070196;28;20074;-62
2020/12/09 06:03:53;;;;;;;14.88;5.88;;;2.70;99.90;;;;;;5062368;28;20041;-63
2020/12/09 06:06:21;;;;;;;15.45;5.50;;;2.70;99.90;;;;;;5060748;28;20074;-63
2020/12/09 06:08:56;;;;;;;15.18;6.10;;;2.80;99.90;;;;;;5058353;28;20040;-63
2020/12/09 06:11:31;;;;;;;16.38;6.13;;;2.80;99.90;;;;;;5071110;28;20056;-63
2020/12/09 06:13:58;;;;;;;;;;;2.80;99.90;;;;;;5060665;28;20037;-63
2020/12/09 06:16:25;;;;;;;13.05;5.45;;;2.80;99.90;;;;;;5067739;28;19932;-62
2020/12/09 06:18:54;;;;;;;14.32;5.30;;;2.70;99.90;;;;;;5066815;28;20049;-62
2020/12/09 06:21:22;;;;;;;16.13;5.80;;;2.70;99.90;;;;;;5066168;28;20109;-63
2020/12/09 06:23:51;;;;;;;11.95;5.70;;;2.80;99.90;;;;;;5072903;28;20060;-63
2020/12/09 06:26:19;;;;;;;14.85;5.82;;;2.70;99.90;;;;;;5057145;28;20132;-63
2020/12/09 06:28:46;;;;;;;15.60;6.05;;;2.70;99.90;;;;;;5070220;28;20048;-63
2020/12/09 06:31:19;;;;;;;20.13;7.05;;;2.80;99.90;;;;;;5062549;28;20055;-63
2020/12/09 06:33:47;;;;;;;13.60;5.70;;;2.80;99.90;;;;;;5066793;28;20037;-64
2020/12/09 06:36:14;;;;;;;14.07;6.05;;;2.80;99.90;;;;;;5064613;28;20039;-64
2020/12/09 06:38:41;;;;;;;19.10;6.32;;;2.80;99.90;;;;;;5052776;28;20368;-60
2020/12/09 06:41:09;;;;;;;13.75;5.80;;;2.90;99.90;;;;;;5069478;28;20040;-60
2020/12/09 06:43:36;;;;;;;16.33;5.50;;;3.00;99.90;;;;;;5072864;28;20052;-60
2020/12/09 06:46:03;;;;;;;15.73;6.10;;;3.10;99.90;;;;;;5060362;28;20086;-61
2020/12/09 06:48:37;;;;;;;13.02;5.03;;;3.10;99.90;;;;;;5057496;28;20052;-62
2020/12/09 06:51:36;;;;;;;14.13;5.03;;;3.10;99.90;;;;;;5066980;28;20037;-61
2020/12/09 06:54:15;;;;;;;12.63;4.90;;;3.20;99.90;;;;;;5067388;28;20051;-64
2020/12/09 06:56:43;;;;;;;14.27;5.30;;;3.30;99.90;;;;;;5059467;28;20407;-63
2020/12/09 06:59:24;;;;;;;14.35;5.45;;;3.30;99.90;;;;;;5057513;28;20561;-62
2020/12/09 07:02:05;;;;;;;15.40;6.07;;;3.30;99.90;;;;;;5059947;28;20044;-62
2020/12/09 07:04:53;;;;;;;15.95;6.03;;;3.40;99.90;;;;;;5063741;28;20040;-63
2020/12/09 07:07:32;;;;;;;15.38;5.38;;;3.40;99.90;;;;;;5056836;28;20040;-63
2020/12/09 07:10:03;;;;;;;14.50;5.65;;;3.40;99.90;;;;;;5055484;28;20079;-63
2020/12/09 07:12:29;;;;;;;16.02;5.63;;;3.50;99.90;;;;;;5066449;28;20048;-63
2020/12/09 07:14:57;;;;;;;16.50;6.65;;;3.50;99.90;;;;;;5055096;28;20051;-62
2020/12/09 07:17:27;;;;;;;19.45;6.35;;;3.50;99.90;;;;;;5060422;28;20089;-63
2020/12/09 07:19:57;;;;;;;14.80;6.45;;;3.60;99.90;;;;;;5062834;28;20045;-62
2020/12/09 07:22:26;;;;;;;14.30;6.00;;;3.70;99.90;;;;;;5061011;28;20060;-62
2020/12/09 07:24:53;;;;;;;14.93;5.32;;;3.70;99.90;;;;;;5057469;28;20051;-62
2020/12/09 07:27:23;;;;;;;15.68;7.00;;;3.80;99.90;;;;;;5074412;28;20107;-62
2020/12/09 07:29:52;;;;;;;15.20;5.70;;;3.90;99.90;;;;;;5060491;28;20056;-63
2020/12/09 07:32:21;;;;;;;17.50;6.65;;;4.00;99.90;;;;;;5063458;28;20271;-63
2020/12/09 07:34:59;;;;;;;15.38;6.05;;;4.00;99.90;;;;;;5057582;28;20055;-62
2020/12/09 07:37:30;;;;;;;16.08;6.78;;;4.00;99.90;;;;;;5066181;28;20037;-62
2020/12/09 07:39:59;;;;;;;15.80;6.75;;;4.00;99.90;;;;;;5067098;28;20058;-62
2020/12/09 07:42:26;;;;;;;15.63;6.30;;;4.00;99.90;;;;;;5064388;28;20037;-62
2020/12/09 07:44:53;;;;;;;19.08;7.07;;;4.00;99.90;;;;;;5053423;28;20135;-62
2020/12/09 07:47:25;;;;;;;18.05;7.82;;;4.10;99.90;;;;;;5062104;28;20045;-63
2020/12/09 07:50:03;;;;;;;20.80;8.35;;;4.20;99.90;;;;;;5057922;28;20135;-61
2020/12/09 07:52:32;;;;;;;36.05;11.75;;;4.30;99.90;;;;;;5077002;28;20309;-63
2020/12/09 07:55:13;;;;;;;20.73;7.90;;;4.30;99.90;;;;;;5060456;28;20044;-62
2020/12/09 07:57:40;;;;;;;26.42;10.75;;;4.50;99.90;;;;;;5062878;28;20048;-63
2020/12/09 08:00:13;;;;;;;26.88;9.68;;;4.60;99.90;;;;;;5054774;28;20091;-63
2020/12/09 08:02:41;;;;;;;31.88;10.57;;;4.60;99.90;;;;;;5051925;28;20058;-63
2020/12/09 08:05:20;;;;;;;28.05;11.02;;;4.60;99.90;;;;;;5055321;28;20514;-62
2020/12/09 08:07:58;;;;;;;24.15;9.02;;;4.80;99.90;;;;;;5056270;28;20044;-62
2020/12/09 08:10:31;;;;;;;18.08;7.07;;;4.90;99.90;;;;;;5062383;28;20081;-62
2020/12/09 08:13:02;;;;;;;12.50;6.00;;;5.10;99.90;;;;;;5062768;28;20040;-62
2020/12/09 08:15:29;;;;;;;20.63;6.60;;;5.20;99.90;;;;;;5067577;28;20064;-63
2020/12/09 08:17:56;;;;;;;19.30;8.55;;;5.30;99.90;;;;;;5060241;28;20044;-63
2020/12/09 08:20:23;;;;;;;18.83;7.47;;;5.50;99.90;;;;;;5038488;28;20187;-63
2020/12/09 08:22:58;;;;;;;21.27;7.90;;;5.70;99.90;;;;;;5047086;28;20056;-62
2020/12/09 08:25:27;;;;;;;17.35;6.55;;;5.90;99.90;;;;;;5054889;28;20068;-62
2020/12/09 08:27:55;;;;;;;22.45;7.30;;;6.00;99.90;;;;;;5059829;28;20556;-63
2020/12/09 08:30:25;;;;;;;18.35;6.43;;;6.20;99.90;;;;;;5053981;28;20056;-63
2020/12/09 08:33:10;;;;;;;19.02;6.57;;;6.20;99.90;;;;;;5061055;28;20102;-64
2020/12/09 08:36:00;;;;;;;19.73;6.95;;;6.30;99.90;;;;;;5056163;28;20047;-64
2020/12/09 08:38:30;;;;;;;10.07;6.13;;;6.30;99.90;;;;;;5055002;28;20053;-63
2020/12/09 08:41:15;;;;;;;11.63;5.90;;;6.50;99.90;;;;;;5055697;28;20051;-62
2020/12/09 08:43:43;;;;;;;13.95;5.82;;;6.50;99.90;;;;;;5061753;28;20072;-62
2020/12/09 08:46:11;;;;;;;16.25;6.60;;;6.30;99.90;;;;;;5058277;28;20110;-64
2020/12/09 08:48:39;;;;;;;16.17;6.88;;;6.30;99.90;;;;;;5065662;28;20064;-65
2020/12/09 08:51:07;;;;;;;14.70;6.63;;;6.30;99.90;;;;;;5061456;28;20060;-65
2020/12/09 08:53:34;;;;;;;15.02;5.85;;;6.30;99.90;;;;;;5059030;28;20049;-65
2020/12/09 08:56:03;;;;;;;17.10;6.60;;;6.30;99.90;;;;;;5064873;28;20043;-64
2020/12/09 08:58:29;;;;;;;18.13;7.70;;;6.30;99.90;;;;;;5063699;28;20126;-65
2020/12/09 09:00:55;;;;;;;16.63;7.50;;;6.30;99.90;;;;;;5064847;28;20041;-65
2020/12/09 09:03:25;;;;;;;16.05;7.30;;;6.40;99.90;;;;;;5062917;28;20094;-64
2020/12/09 09:05:54;;;;;;;20.60;7.72;;;6.40;99.90;;;;;;5057052;28;20052;-64
2020/12/09 09:08:21;;;;;;;17.65;6.95;;;6.40;99.90;;;;;;5058671;28;20185;-63
2020/12/09 09:10:48;;;;;;;16.25;8.27;;;6.40;99.90;;;;;;5057009;28;20051;-63
2020/12/09 09:13:15;;;;;;;18.08;8.40;;;6.50;99.90;;;;;;5058761;28;20041;-61
2020/12/09 09:15:42;;;;;;;15.88;6.75;;;6.60;99.90;;;;;;5057522;28;20056;-61
2020/12/09 09:18:09;;;;;;;14.65;6.20;;;6.70;99.90;;;;;;5056582;28;20040;-61
2020/12/09 09:20:36;;;;;;;11.77;5.80;;;6.80;99.90;;;;;;5054574;28;20066;-61
2020/12/09 09:23:05;;;;;;;11.25;5.28;;;6.90;99.90;;;;;;5037817;28;20074;-61
2020/12/09 09:25:33;;;;;;;12.88;5.55;;;6.90;99.90;;;;;;5055177;28;20090;-63
2020/12/09 09:28:01;;;;;;;14.10;5.82;;;6.90;99.90;;;;;;5058745;28;20406;-63
2020/12/09 09:30:48;;;;;;;12.80;5.47;;;6.90;99.90;;;;;;5056697;28;20119;-62
2020/12/09 09:33:14;;;;;;;12.35;6.10;;;6.90;99.90;;;;;;5062202;28;20574;-62
2020/12/09 09:35:41;;;;;;;14.45;5.72;;;6.80;99.90;;;;;;5059732;28;20416;-63
2020/12/09 09:38:08;;;;;;;12.23;5.85;;;6.70;99.90;;;;;;5062205;28;20050;-62
2020/12/09 09:40:35;;;;;;;11.35;5.55;;;6.70;99.90;;;;;;5064188;28;20535;-61
2020/12/09 09:43:02;;;;;;;11.70;5.55;;;6.70;99.90;;;;;;5055452;28;20041;-61
2020/12/09 09:45:28;;;;;;;13.52;5.68;;;6.70;99.90;;;;;;5054680;28;20653;-61
2020/12/09 09:47:55;;;;;;;12.48;5.72;;;6.60;99.90;;;;;;5056867;28;20049;-62
2020/12/09 09:50:22;;;;;;;12.18;5.93;;;6.70;99.90;;;;;;5041800;28;20059;-62
2020/12/09 09:52:49;;;;;;;15.52;6.88;;;6.70;99.90;;;;;;5055698;28;20102;-62
2020/12/09 09:55:16;;;;;;;14.10;6.07;;;6.60;99.90;;;;;;5050764;28;20040;-63
2020/12/09 09:57:42;;;;;;;13.80;5.95;;;6.60;99.90;;;;;;5056033;28;20044;-63
2020/12/09 10:00:09;;;;;;;13.05;5.75;;;6.60;99.90;;;;;;5055378;28;20090;-62
2020/12/09 10:02:40;;;;;;;12.73;5.35;;;6.70;99.90;;;;;;5058336;28;20064;-63
2020/12/09 10:05:07;;;;;;;14.15;4.85;;;6.80;99.90;;;;;;5072043;28;20056;-62
2020/12/09 10:07:34;;;;;;;13.35;5.53;;;6.80;99.90;;;;;;5053577;28;20049;-63
2020/12/09 10:10:03;;;;;;;12.30;5.28;;;6.80;99.90;;;;;;5060507;28;20043;-62
2020/12/09 10:12:31;;;;;;;10.13;4.43;;;6.70;99.90;;;;;;5059461;28;20168;-63
2020/12/09 10:14:58;;;;;;;11.38;4.57;;;6.80;99.90;;;;;;5053440;28;20044;-63
2020/12/09 10:17:24;;;;;;;11.57;5.03;;;6.70;99.90;;;;;;5054701;28;20057;-63
2020/12/09 10:19:51;;;;;;;13.13;4.93;;;6.70;99.90;;;;;;5051359;28;20470;-64
2020/12/09 10:22:17;;;;;;;16.60;5.45;;;6.70;99.90;;;;;;5053537;28;20044;-62
2020/12/09 10:24:44;;;;;;;11.95;5.25;;;6.70;99.90;;;;;;5051382;28;20532;-62
2020/12/09 10:27:11;;;;;;;14.07;5.35;;;6.80;99.90;;;;;;5058356;28;20055;-62
2020/12/09 10:29:37;;;;;;;13.40;5.18;;;6.80;99.90;;;;;;5052432;28;20049;-62
2020/12/09 10:32:04;;;;;;;12.00;5.25;;;6.70;99.90;;;;;;5058655;28;20051;-63
2020/12/09 10:34:33;;;;;;;10.63;5.65;;;6.70;99.90;;;;;;5056628;28;20126;-63
2020/12/09 10:36:59;;;;;;;10.88;5.18;;;6.80;99.90;;;;;;5056180;28;20710;-63
2020/12/09 10:39:26;;;;;;;16.05;6.32;;;6.70;99.90;;;;;;5042852;28;20086;-62
2020/12/09 10:41:52;;;;;;;13.13;5.75;;;6.80;99.90;;;;;;5066891;28;20057;-62
2020/12/09 10:44:19;;;;;;;15.35;5.40;;;6.80;99.90;;;;;;5061741;28;20048;-63
2020/12/09 10:46:46;;;;;;;11.63;4.93;;;6.70;99.90;;;;;;5070147;28;20037;-63
2020/12/09 10:49:17;;;;;;;8.23;4.22;;;6.60;99.90;;;;;;5068085;28;20098;-65
2020/12/09 10:51:48;;;;;;;14.63;5.53;;;6.70;99.90;;;;;;5059114;28;20534;-64
2020/12/09 10:54:15;;;;;;;15.27;5.93;;;6.70;99.90;;;;;;5061585;28;20049;-64
2020/12/09 10:56:42;;;;;;;17.85;6.20;;;6.70;99.90;;;;;;5060028;28;20039;-63
2020/12/09 10:59:15;;;;;;;13.27;5.18;;;6.80;99.90;;;;;;5053817;28;20068;-62
2020/12/09 11:01:44;;;;;;;9.75;5.20;;;6.80;99.90;;;;;;5057703;28;20099;-62
2020/12/09 11:04:11;;;;;;;15.07;6.05;;;6.80;99.90;;;;;;5057323;28;20048;-61
2020/12/09 11:06:38;;;;;;;11.23;4.90;;;6.80;99.90;;;;;;5050585;28;20072;-61
2020/12/09 11:09:07;;;;;;;12.70;5.78;;;6.80;99.90;;;;;;5053467;28;20053;-61
2020/12/09 11:11:35;;;;;;;10.23;4.93;;;6.80;99.90;;;;;;5056270;28;20043;-61
2020/12/09 11:14:03;;;;;;;11.18;4.65;;;6.80;99.90;;;;;;5057637;28;20044;-62
2020/12/09 11:16:33;;;;;;;12.85;5.00;;;6.80;99.90;;;;;;5061988;28;20049;-62
2020/12/09 11:19:00;;;;;;;9.10;4.53;;;6.80;99.90;;;;;;5061615;28;20134;-62
2020/12/09 11:21:27;;;;;;;11.43;4.97;;;6.90;99.90;;;;;;5060504;28;20048;-62
2020/12/09 11:23:53;;;;;;;13.18;5.43;;;6.90;99.90;;;;;;5056640;28;20441;-62
2020/12/09 11:26:24;;;;;;;10.05;4.50;;;6.90;99.90;;;;;;5057811;28;20045;-62
2020/12/09 11:28:50;;;;;;;9.55;4.47;;;6.80;99.90;;;;;;5050726;28;20041;-62
2020/12/09 11:31:22;;;;;;;13.70;4.80;;;6.90;99.90;;;;;;5032802;28;20059;-61
2020/12/09 11:33:50;;;;;;;10.30;4.60;;;6.80;99.90;;;;;;5053047;28;20047;-64
2020/12/09 11:36:26;;;;;;;14.30;5.20;;;6.80;99.90;;;;;;5054091;28;20829;-64
2020/12/09 11:38:54;;;;;;;12.30;4.45;;;6.80;99.90;;;;;;5052505;28;20037;-64
2020/12/09 11:41:26;;;;;;;12.70;4.70;;;6.70;99.90;;;;;;5037749;28;20434;-64
2020/12/09 11:43:55;;;;;;;14.30;5.80;;;6.80;99.90;;;;;;5058929;28;20056;-64
2020/12/09 11:46:22;;;;;;;10.80;5.30;;;6.80;99.90;;;;;;5063619;28;20049;-64
2020/12/09 11:48:49;;;;;;;13.55;6.20;;;6.80;99.90;;;;;;5057785;28;20049;-64
2020/12/09 11:51:16;;;;;;;12.98;5.47;;;6.80;99.90;;;;;;5064967;28;20059;-65
2020/12/09 11:53:43;;;;;;;15.15;6.03;;;6.80;99.90;;;;;;5057654;28;20146;-64
2020/12/09 11:56:11;;;;;;;18.48;6.25;;;6.90;99.90;;;;;;5060546;28;20491;-61
2020/12/09 11:58:39;;;;;;;15.93;5.63;;;6.90;99.90;;;;;;5058295;28;20040;-61
2020/12/09 12:01:07;;;;;;;12.88;5.53;;;6.90;99.90;;;;;;5061651;28;21699;-61
2020/12/09 12:03:34;;;;;;;13.68;5.65;;;6.90;99.90;;;;;;5064692;28;20049;-61
2020/12/09 12:06:01;;;;;;;11.15;5.00;;;6.90;99.90;;;;;;5058272;28;20784;-61
2020/12/09 12:08:27;;;;;;;12.52;4.93;;;7.00;99.90;;;;;;5065571;28;20051;-61
2020/12/09 12:10:54;;;;;;;16.40;5.95;;;6.90;99.90;;;;;;5067830;28;20127;-61
2020/12/09 12:13:21;;;;;;;13.65;5.57;;;6.90;99.90;;;;;;5066791;28;20518;-64
2020/12/09 12:15:47;;;;;;;10.70;5.60;;;6.80;99.90;;;;;;5055560;28;20139;-64
2020/12/09 12:18:14;;;;;;;13.63;6.28;;;6.80;99.90;;;;;;5066018;28;20040;-64
2020/12/09 12:20:40;;;;;;;14.32;5.68;;;6.80;99.90;;;;;;5050265;28;20060;-62
2020/12/09 12:23:07;;;;;;;13.93;6.28;;;6.90;99.90;;;;;;5059098;28;20072;-62
2020/12/09 12:25:33;;;;;;;11.55;5.90;;;6.90;99.90;;;;;;5067816;28;20056;-62
2020/12/09 12:28:00;;;;;;;13.93;6.07;;;6.90;99.90;;;;;;5046063;28;20343;-62
2020/12/09 12:30:26;;;;;;;13.00;5.70;;;7.00;99.90;;;;;;5064592;28;20048;-62
2020/12/09 12:32:53;;;;;;;11.95;5.10;;;6.90;99.90;;;;;;5054546;28;20691;-62
2020/12/09 12:35:19;;;;;;;12.82;5.85;;;6.90;99.90;;;;;;5063723;28;20113;-61
2020/12/09 12:37:45;;;;;;;12.65;5.40;;;6.90;99.90;;;;;;5059314;28;20041;-60
2020/12/09 12:40:12;;;;;;;11.27;5.25;;;6.90;99.90;;;;;;5067589;28;20049;-62
2020/12/09 12:42:39;;;;;;;12.55;5.20;;;6.90;99.90;;;;;;5063771;28;20045;-62
2020/12/09 12:45:05;;;;;;;11.65;6.03;;;6.90;99.90;;;;;;5060458;28;20495;-62
2020/12/09 12:47:32;;;;;;;12.90;5.40;;;6.90;99.90;;;;;;5056175;28;20055;-62
2020/12/09 12:49:59;;;;;;;15.88;5.82;;;6.90;99.90;;;;;;5068336;28;20044;-62
2020/12/09 12:52:26;;;;;;;13.13;6.07;;;6.90;99.90;;;;;;5052168;28;20053;-61
2020/12/09 12:54:52;;;;;;;12.13;5.60;;;6.90;99.90;;;;;;5052966;28;20052;-62